Tiempo atmosférico en la estación meteorológica de Bicorp, València/Valencia (299 m.)



Fecha
DESCASC
Temp. máxima en grados centígrados (hora)
DESCASC
Temp. mínima en grados centígrados (hora)
DESCASC
Temp. media en grados centígrados
DESCASC
Racha de viento máxima en m/sg (hora)
DESCASC
Velocidad máxima media en intervalos de 10 minutos(hora)
DESCASC
Precipitaciones diarias en mm
DESCASC
Precipitaciones de 00:00 a 06:00 en mm
DESCASC
Precipitaciones de 06:00 a 12:00 en mm
DESCASC
Precipitaciones de 12:00 a 18:00 en mm
DESCASC
Precipitaciones de 18:00 a 24:00 en mm
DESCASC
08-12-2019 16.8 (14:40) 4.8 (04:50) 10.8 10.28 (18:20) 5.28 (18:10) 0 0 0 0 0
07-12-2019 17 (13:10) 6.5 (23:50) 11.8 3.61 (14:00) 2.5 (14:00) 0.2 0 0.2 0 0
06-12-2019 13.1 (14:20) 7.8 (04:30) 10.5 2.78 (15:40) 1.67 (15:40) 0.2 0 0 0.2 0
05-12-2019 11.8 (14:40) 9.2 (00:00) 10.5 6.67 (02:30) 3.61 (02:30) 18.4 11.2 3.2 3.2 0.8
04-12-2019 13.5 (14:30) 9.3 (22:50) 11.4 13.89 (06:10) 5.56 (06:40) 13.6 3.4 3.6 0 6.6
03-12-2019 10.2 (00:00) 7.4 (00:00) 8.8 10.83 (23:40) 5.28 (23:30) 10.2 5 1.4 1.6 2.2
02-12-2019 11 (01:00) 8.7 (00:00) 9.8 11.11 (17:30) 5.56 (15:00) 19.4 1.4 5 6.4 6.6
01-12-2019 17.1 (13:40) 8 (00:00) 12.6 11.39 (11:20) 5.56 (12:30) 0 0 0 0 0
30-11-2019 22 (15:00) 11.8 (00:00) 16.9 8.61 (13:10) 4.17 (04:20) 0 0 0 0 0
29-11-2019 19.3 (14:30) 14 (00:00) 16.6 12.78 (05:20) 6.11 (02:30) 0 0 0 0 0
28-11-2019 16.2 (14:00) 11.6 (03:10) 13.9 13.89 (11:30) 5.83 (20:20) 0 0 0 0 0
27-11-2019 19.4 (12:20) 13.4 (00:00) 16.4 21.67 (13:40) 11.39 (13:40) 0 0 0 0 0
26-11-2019 19.6 (15:00) 12.5 (00:00) 16.1 14.17 (12:40) 8.06 (12:30) 0 0 0 0 0
25-11-2019 17.7 (12:10) 11.6 (00:20) 14.7 14.17 (03:20) 6.94 (03:20) 0 0 0 0 0
24-11-2019 15.6 (14:10) 8.3 (00:00) 12 16.94 (23:10) 7.22 (02:40) 0 0 0 0 0
23-11-2019 15.3 (14:30) 8.4 (00:00) 11.8 18.33 (08:50) 9.17 (08:50) 1.2 0.4 0.8 0 0
22-11-2019 18 (13:10) 6.1 (00:00) 12 11.39 (14:00) 6.11 (13:30) 1 0 0 0.8 0.2
21-11-2019 15.5 (15:30) 4.9 (00:00) 10.2 4.17 (13:30) 1.94 (22:20) 0 0 0 0 0
20-11-2019 16 (13:10) 3.4 (08:20) 9.7 6.39 (13:30) 4.17 (13:20) 0 0 0 0 0
19-11-2019 15 (15:20) 3 (00:00) 9 10 (13:00) 5.83 (13:00) 0 0 0 0 0
18-11-2019 15.7 (13:50) 6.8 (00:00) 11.3 8.33 (12:30) 3.33 (00:10) 0.2 0 0.2 0 0
17-11-2019 13.7 (15:10) 5.7 (00:00) 9.7 14.72 (12:30) 7.5 (12:30) 2.2 0 0 0 2.2
16-11-2019 14.7 (15:30) 4.2 (00:00) 9.4 9.17 (18:20) 4.17 (18:30) 0 0 0 0 0
15-11-2019 13.7 (14:10) 7.4 (00:00) 10.5 13.61 (03:10) 6.39 (03:40) 0.2 0 0.2 0 0
14-11-2019 15.9 (12:10) 7.9 (00:00) 11.9 20.83 (11:10) 11.11 (11:10) 1.6 0 0 0 1.6
13-11-2019 20.1 (12:50) 9.7 (00:00) 14.9 19.72 (10:20) 7.22 (06:30) 0.4 0 0 0.4 0
12-11-2019 19 (14:50) 9 (00:00) 14 10.28 (17:10) 5.28 (17:10) 0 0 0 0 0

Gráficas

Temp. máximas Temp. mínimas Temp. medias Precipitaciones Rachas de viento máximas Velocidades máximas media en intervalos de 10 minutos

Datos horarios

Fecha y hora oficial Temperatura (ºC) Velocidad del viento (km/h) Dirección del viento Racha (km/h) Dirección de racha Precipitación (mm) Presión (hPa) Tendencia (hPa) Humedad (%)
2019-12-11 23:00:00 8.8 5 Sudoeste 22 Oeste 0 -- -- 67
2019-12-11 22:00:00 9.3 7 Oeste 22 Oeste 0 -- -- 62
2019-12-11 21:00:00 9.4 9 Oeste 22 Oeste 0 -- -- 62
2019-12-11 20:00:00 9.9 5 Sudoeste 19 Oeste 0 -- -- 62
2019-12-11 19:00:00 10.7 7 Sudeste 17 Sudoeste 0 -- -- 64
2019-12-11 18:00:00 11.6 4 Sudoeste 21 Oeste 0 -- -- 64
2019-12-11 17:00:00 13.8 8 Sudoeste 28 Sudoeste 0 -- -- 57
2019-12-11 16:00:00 15.9 8 Sur 37 Sur 0 -- -- 47
2019-12-11 15:00:00 15.8 14 Sudoeste 36 Sudoeste 0 -- -- 44
2019-12-11 14:00:00 14 9 Sudoeste 49 Sudoeste 0 -- -- 45
2019-12-11 13:00:00 14.2 17 Sudoeste 54 Sudoeste 0 -- -- 42
2019-12-11 12:00:00 14.4 6 Oeste 27 Sudoeste 0 -- -- 41
2019-12-11 11:00:00 14.5 7 Sur 22 Sudoeste 0 -- -- 47
2019-12-11 10:00:00 12.6 9 Sudoeste 22 Oeste 0 -- -- 54
2019-12-11 09:00:00 10.9 13 Sudoeste 30 Sudoeste 0 -- -- 51
2019-12-11 08:00:00 9 4 Sudeste 19 Sudoeste 0 -- -- 57
2019-12-11 07:00:00 9.3 5 Oeste 24 Sudoeste 0 -- -- 58
2019-12-11 06:00:00 11 4 Sudoeste 19 Oeste 0 -- -- 48
2019-12-11 05:00:00 10.4 5 Oeste 24 Oeste 0 -- -- 48
2019-12-11 04:00:00 4.4 2 Sudoeste 9 Noroeste 0 -- -- 81
2019-12-11 03:00:00 4.4 3 Oeste 10 Sudoeste 0 -- -- 83
2019-12-11 02:00:00 5.8 3 Oeste 12 Oeste 0 -- -- 81
2019-12-11 01:00:00 5.7 0 Calma 5 Oeste 0 -- -- 82
2019-12-11 00:00:00 6.6 0 Calma 4 Noroeste 0 -- -- 78
2019-12-10 23:00:00 6.5 2 Norte 5 Sudoeste 0 -- -- 79
2019-12-10 22:00:00 7.3 0 Calma 5 Sudoeste 0 -- -- 75
2019-12-10 21:00:00 8.2 0 Calma 9 Norte 0 -- -- 68
2019-12-10 20:00:00 9.9 4 Nordeste 9 Norte 0 -- -- 59
2019-12-10 19:00:00 11.3 5 Sur 12 Sur 0 -- -- 54
2019-12-10 18:00:00 12.1 4 Nordeste 15 Sur 0 -- -- 56
2019-12-10 17:00:00 15.8 7 Sudoeste 13 Sudoeste 0 -- -- 46
2019-12-10 16:00:00 17.4 6 Sudoeste 21 Sudoeste 0 -- -- 42
2019-12-10 15:00:00 17.1 12 Sudoeste 22 Sudoeste 0 -- -- 41
2019-12-10 14:00:00 17 9 Sudoeste 22 Sudoeste 0 -- -- 41
2019-12-10 13:00:00 15.1 12 Sudoeste 25 Sudoeste 0 -- -- 44
2019-12-10 12:00:00 14 5 Sudoeste 23 Sudoeste 0 -- -- 48
2019-12-10 11:00:00 13.3 10 Sudoeste 24 Sudoeste 0 -- -- 49
2019-12-10 10:00:00 11.8 12 Sur 29 Sudoeste 0 -- -- 50
2019-12-10 09:00:00 9.2 13 Sudoeste 29 Sudoeste 0 -- -- 55
2019-12-10 08:00:00 8.4 10 Sudoeste 20 Sudoeste 0 -- -- 58
2019-12-10 07:00:00 9 6 Sudeste 21 Sur 0 -- -- 56
2019-12-10 06:00:00 11.7 8 Sudoeste 26 Sudoeste 0 -- -- 39
2019-12-10 05:00:00 10.3 5 Sudeste 30 Noroeste 0 -- -- 48
2019-12-10 04:00:00 11.7 6 Sur 28 Sudoeste 0 -- -- 46
2019-12-10 03:00:00 11.2 7 Sudoeste 20 Noroeste 0 -- -- 51
2019-12-10 02:00:00 12 6 Oeste 37 Oeste 0 -- -- 48
2019-12-10 01:00:00 11.9 7 Oeste 30 Noroeste 0 -- -- 49
2019-12-10 00:00:00 11.7 6 Sudoeste 24 Noroeste 0 -- -- 53
2019-12-09 23:00:00 11.6 5 Oeste 27 Sudoeste 0 -- -- 55
2019-12-09 22:00:00 12.1 6 Noroeste 20 Noroeste 0 -- -- 52
2019-12-09 21:00:00 11.7 6 Sudoeste 16 Sudoeste 0 -- -- 56
2019-12-09 20:00:00 13 6 Oeste 17 Noroeste 0 -- -- 51
2019-12-09 19:00:00 13.1 6 Oeste 28 Oeste 0 -- -- 55
2019-12-09 18:00:00 13.7 10 Sudoeste 22 Sudoeste 0 -- -- 53
2019-12-09 17:00:00 15.4 11 Sudoeste 28 Sudoeste 0 -- -- 48
2019-12-09 16:00:00 16.9 16 Sudoeste 49 Sudoeste 0 -- -- 43
2019-12-09 15:00:00 17.6 17 Sudoeste 41 Sudoeste 0 -- -- 39
2019-12-09 14:00:00 17.8 15 Sudoeste 38 Sudoeste 0 -- -- 37
2019-12-09 13:00:00 18.1 6 Sudoeste 30 Sudoeste 0 -- -- 38
2019-12-09 12:00:00 17.4 11 Sudoeste 27 Sudoeste 0 -- -- 35
2019-12-09 11:00:00 14.7 5 Sudeste 13 Sur 0 -- -- 55
2019-12-09 10:00:00 12.8 6 Sudeste 17 Sudoeste 0 -- -- 65
2019-12-09 09:00:00 10.5 7 Oeste 29 Oeste 0 -- -- 75
2019-12-09 08:00:00 10.6 9 Noroeste 28 Noroeste 0 -- -- 75
2019-12-09 07:00:00 9.7 4 Nordeste 14 Sur 0 -- -- 79
2019-12-09 06:00:00 10.4 6 Este 21 Sur 0 -- -- 80
2019-12-09 05:00:00 11.2 7 Este 24 Sur 0 -- -- 79
2019-12-09 04:00:00 11.4 13 Sur 29 Sur 0 -- -- 79
2019-12-09 03:00:00 10.3 5 Nordeste 22 Oeste 0 -- -- 84
2019-12-09 02:00:00 12.3 13 Sudoeste 27 Sudoeste 0 -- -- 76
2019-12-09 01:00:00 12.8 6 Este 28 Oeste 0 -- -- 75
2019-12-09 00:00:00 13.2 7 Noroeste 30 Noroeste 0 -- -- 71
2019-12-08 23:00:00 13.6 5 Sudeste 31 Sudoeste 0 -- -- 67
2019-12-08 22:00:00 13.9 8 Oeste 33 Oeste 0 -- -- 63
2019-12-08 21:00:00 13.4 4 Sudoeste 24 Oeste 0 -- -- 64
2019-12-08 20:00:00 13.8 12 Oeste 35 Oeste 0 -- -- 58
2019-12-08 19:00:00 14 14 Sudoeste 37 Oeste 0 -- -- 57
2019-12-08 18:00:00 14.2 16 Sudoeste 35 Sudoeste 0 -- -- 57
2019-12-08 17:00:00 15.7 12 Sudoeste 31 Sudoeste 0 -- -- 52
2019-12-08 16:00:00 16.4 6 Nordeste 16 Norte 0 -- -- 53
2019-12-08 15:00:00 16.7 9 Sur 21 Sur 0 -- -- 56
2019-12-08 14:00:00 16.5 10 Sudoeste 23 Sudoeste 0 -- -- 57
2019-12-08 13:00:00 14.7 15 Sudoeste 28 Sudoeste 0 -- -- 63
2019-12-08 12:00:00 14 9 Sudoeste 18 Sudoeste 0 -- -- 66
2019-12-08 11:00:00 12.1 2 Este 5 Sudeste 0 -- -- 71
2019-12-08 10:00:00 10.3 0 Calma 4 Norte 0 -- -- 84
2019-12-08 09:00:00 6.3 2 Norte 4 Norte 0 -- -- 95
2019-12-08 08:00:00 5.8 0 Calma 8 Sudoeste 0 -- -- 92
2019-12-08 07:00:00 5.8 4 Oeste 7 Oeste 0 -- -- 96
2019-12-08 06:00:00 5 0 Calma 6 Oeste 0 -- -- 97
2019-12-08 05:00:00 4.8 0 Calma 7 Oeste 0 -- -- 97
2019-12-08 04:00:00 4.9 0 Calma 3 Sur 0 -- -- 97
2019-12-08 03:00:00 5.2 0 Calma 5 Oeste 0 -- -- 96
2019-12-08 02:00:00 5.5 0 Calma 4 Sudoeste 0 -- -- 96
2019-12-08 01:00:00 5.8 0 Calma 6 Sudoeste 0 -- -- 95
2019-12-08 00:00:00 6.5 2 Noroeste 5 Sudoeste 0 -- -- 94
2019-12-07 23:00:00 7 0 Calma 9 Sudoeste 0 -- -- 92
2019-12-07 22:00:00 7.3 3 Oeste 9 Oeste 0 -- -- 92
2019-12-07 21:00:00 8.2 0 Calma 10 Oeste 0 -- -- 88
2019-12-07 20:00:00 9.7 8 Oeste 12 Oeste 0 -- -- 82
2019-12-07 19:00:00 10.3 6 Oeste 10 Sudoeste 0 -- -- 87
2019-12-07 18:00:00 12.1 2 Oeste 9 Oeste 0 -- -- 84
2019-12-07 17:00:00 15.2 0 Calma 8 Este 0 -- -- 75
2019-12-07 16:00:00 16.6 4 Este 12 Este 0 -- -- 65
2019-12-07 15:00:00 16.9 4 Este 10 Sudeste 0 -- -- 65
2019-12-07 14:00:00 17 9 Este 13 Este 0 -- -- 66
2019-12-07 13:00:00 16.9 3 Sudeste 8 Este 0 -- -- 70
2019-12-07 12:00:00 15.7 4 Sudeste 8 Sudeste 0 -- -- 72
2019-12-07 11:00:00 12.8 3 Nordeste 6 Nordeste 0 -- -- 81
2019-12-07 10:00:00 10.9 0 Calma 4 Sudoeste 0.2 -- -- 88
2019-12-07 09:00:00 8.2 3 Noroeste 9 Oeste 0 -- -- 94
2019-12-07 08:00:00 7.4 0 Calma 7 Sudoeste 0 -- -- 94
2019-12-07 07:00:00 7.7 5 Sudoeste 12 Sudoeste 0 -- -- 95
2019-12-07 06:00:00 8 3 Noroeste 11 Oeste 0 -- -- 94
2019-12-07 05:00:00 8.6 4 Oeste 12 Oeste 0 -- -- 93
2019-12-07 04:00:00 9 6 Oeste 9 Oeste 0 -- -- 93
2019-12-07 03:00:00 10.1 3 Oeste 8 Noroeste 0 -- -- 96
2019-12-07 02:00:00 10.7 0 Calma 3 Sudoeste 0 -- -- 97
2019-12-07 01:00:00 10.8 2 Norte 8 Oeste 0 -- -- 96
2019-12-07 00:00:00 10.8 0 Calma 8 Oeste 0 -- -- 96
2019-12-06 23:00:00 10.8 0 Calma 4 Sudoeste 0 -- -- 96
2019-12-06 22:00:00 10.8 0 Calma 6 Oeste 0 -- -- 96
2019-12-06 21:00:00 11.2 4 Oeste 5 Oeste 0 -- -- 96
2019-12-06 20:00:00 11.6 0 Calma 2 Sudeste 0 -- -- 96
2019-12-06 19:00:00 11.6 0 Calma 2 Oeste 0 -- -- 95
2019-12-06 18:00:00 11.8 0 Calma 2 Noroeste 0 -- -- 95
2019-12-06 17:00:00 11.8 2 Nordeste 10 Este 0.2 -- -- 94
2019-12-06 16:00:00 12.4 4 Este 10 Este 0 -- -- 90
2019-12-06 15:00:00 12.9 2 Nordeste 4 Este 0 -- -- 84
2019-12-06 14:00:00 12.8 3 Sur 4 Sudeste 0 -- -- 86
2019-12-06 13:00:00 12.2 0 Calma 5 Nordeste 0 -- -- 91
2019-12-06 12:00:00 12 0 Calma 6 Este 0 -- -- 92
2019-12-06 11:00:00 11.4 0 Calma 3 Este 0 -- -- 97
2019-12-06 10:00:00 10.2 0 Calma 2 Sudoeste 0 -- -- 98
2019-12-06 09:00:00 9.4 3 Sudoeste 5 Oeste 0 -- -- 97
2019-12-06 08:00:00 9.1 0 Calma 4 Este 0 -- -- 97
2019-12-06 07:00:00 9 0 Calma 7 Sudoeste 0 -- -- 97
2019-12-06 06:00:00 8.7 3 Sudoeste 9 Sudoeste 0 -- -- 97
2019-12-06 05:00:00 8.2 3 Sudoeste 8 Oeste 0 -- -- 96
2019-12-06 04:00:00 8.2 0 Calma 8 Oeste 0 -- -- 95
2019-12-06 03:00:00 9.1 0 Calma 6 Oeste 0 -- -- 96
2019-12-06 02:00:00 9.4 3 Oeste 8 Oeste 0 -- -- 96
2019-12-06 01:00:00 9.9 2 Sudoeste 5 Oeste 0 -- -- 96
2019-12-06 00:00:00 10.4 0 Calma 3 Noroeste 0 -- -- 96
2019-12-05 23:00:00 10.5 0 Calma 3 Noroeste 0 -- -- 96
2019-12-05 22:00:00 10.5 0 Calma 3 Norte 0 -- -- 96
2019-12-05 21:00:00 10.5 3 Nordeste 10 Este 0.2 -- -- 96
2019-12-05 20:00:00 10.7 3 Nordeste 14 Nordeste 0.4 -- -- 95
2019-12-05 19:00:00 10.8 5 Nordeste 16 Nordeste 0.2 -- -- 95
2019-12-05 18:00:00 10.9 9 Nordeste 19 Nordeste 0 -- -- 95
2019-12-05 17:00:00 11.1 7 Nordeste 19 Nordeste 0 -- -- 94
2019-12-05 16:00:00 11.4 8 Nordeste 15 Nordeste 0.4 -- -- 94
2019-12-05 15:00:00 11.8 6 Nordeste 13 Nordeste 0 -- -- 95
2019-12-05 14:00:00 11.2 0 Calma 5 Sur 2.4 -- -- 96
2019-12-05 13:00:00 11.1 0 Calma 4 Sudoeste 0.4 -- -- 95
2019-12-05 12:00:00 10.7 0 Calma 4 Sudoeste 1.4 -- -- 95
2019-12-05 11:00:00 10.5 0 Calma 4 Sur 0.8 -- -- 97
2019-12-05 10:00:00 10.1 3 Sur 5 Sudoeste 0.2 -- -- 97
2019-12-05 09:00:00 9.7 0 Calma 9 Nordeste 0.6 -- -- 97
2019-12-05 08:00:00 9.7 0 Calma 2 Oeste 0 -- -- 97
2019-12-05 07:00:00 9.5 0 Calma 3 Nordeste 0.2 -- -- 97
2019-12-05 06:00:00 9.3 2 Nordeste 11 Nordeste 0.6 -- -- 97
2019-12-05 05:00:00 9.2 5 Nordeste 13 Nordeste 1.4 -- -- 97
2019-12-05 04:00:00 9.2 6 Nordeste 14 Este 1.4 -- -- 96
2019-12-05 03:00:00 9.4 9 Nordeste 24 Nordeste 1.6 -- -- 95
2019-12-05 02:00:00 10.1 6 Nordeste 24 Norte 2.6 -- -- 93
2019-12-05 01:00:00 9.6 4 Oeste 15 Noroeste 3.6 -- -- 91
2019-12-05 00:00:00 9.5 2 Norte 9 Oeste 2 -- -- 89
2019-12-04 23:00:00 9.3 2 Oeste 5 Norte 1.2 -- -- 89
2019-12-04 22:00:00 9.7 2 Sudoeste 4 Sudoeste 2 -- -- 92
2019-12-04 21:00:00 10.2 0 Calma 9 Norte 1.4 -- -- 89
2019-12-04 20:00:00 10.8 0 Calma 9 Noroeste 0 -- -- 84
2019-12-04 19:00:00 11.2 0 Calma 6 Oeste 0 -- -- 83
2019-12-04 18:00:00 11.6 2 Oeste 10 Noroeste 0 -- -- 80
2019-12-04 17:00:00 12.1 4 Noroeste 8 Norte 0 -- -- 77
2019-12-04 16:00:00 12.8 0 Calma 11 Norte 0 -- -- 75
2019-12-04 15:00:00 13.2 4 Noroeste 11 Noroeste 0 -- -- 69
2019-12-04 14:00:00 12.6 3 Norte 14 Nordeste 0 -- -- 73
2019-12-04 13:00:00 12 5 Norte 14 Norte 0 -- -- 75
2019-12-04 12:00:00 10.5 4 Nordeste 19 Norte 0 -- -- 81
2019-12-04 11:00:00 9.9 7 Noroeste 19 Norte 0.2 -- -- 86
2019-12-04 10:00:00 9.9 5 Nordeste 24 Norte 0 -- -- 88
2019-12-04 09:00:00 9.8 12 Norte 30 Nordeste 0.4 -- -- 90
2019-12-04 08:00:00 10.4 14 Nordeste 37 Nordeste 0.8 -- -- 88
2019-12-04 07:00:00 10.4 7 Norte 50 Norte 2.2 -- -- 88
2019-12-04 06:00:00 10.6 18 Norte 44 Norte 1 -- -- 89
2019-12-04 05:00:00 10.7 15 Norte 37 Norte 0.4 -- -- 88
2019-12-04 04:00:00 11 20 Norte 37 Norte 0 -- -- 88
2019-12-04 03:00:00 10.4 17 Norte 39 Nordeste 1 -- -- 93
2019-12-04 02:00:00 10 15 Norte 33 Norte 0.8 -- -- 94
2019-12-04 01:00:00 9.9 18 Norte 35 Norte 0.2 -- -- 92
2019-12-04 00:00:00 9.8 18 Norte 39 Norte 0 -- -- 90
2019-12-03 23:00:00 9.2 13 Norte 36 Norte 0.2 -- -- 91
2019-12-03 22:00:00 8.2 8 Norte 26 Norte 0.4 -- -- 92
2019-12-03 21:00:00 7.7 7 Norte 17 Noroeste 0.8 -- -- 90
2019-12-03 20:00:00 7.7 3 Noroeste 10 Norte 0.6 -- -- 89
2019-12-03 19:00:00 8 7 Nordeste 18 Nordeste 0.2 -- -- 89
2019-12-03 18:00:00 8 10 Nordeste 21 Norte 0.2 -- -- 91
2019-12-03 17:00:00 7.7 7 Nordeste 25 Nordeste 0.6 -- -- 92
2019-12-03 16:00:00 8 9 Nordeste 27 Norte 0.2 -- -- 90
2019-12-03 15:00:00 7.7 14 Nordeste 26 Nordeste 0.4 -- -- 95
2019-12-03 14:00:00 7.5 5 Nordeste 16 Nordeste 0.2 -- -- 95
2019-12-03 13:00:00 7.7 5 Nordeste 18 Nordeste 0 -- -- 94
2019-12-03 12:00:00 7.8 6 Nordeste 18 Nordeste 0 -- -- 95
2019-12-03 11:00:00 7.9 6 Nordeste 17 Nordeste 0.2 -- -- 95
2019-12-03 10:00:00 8.3 8 Nordeste 23 Nordeste 0.2 -- -- 95
2019-12-03 09:00:00 8.1 6 Nordeste 19 Nordeste 0 -- -- 94
2019-12-03 08:00:00 8.6 11 Nordeste 22 Nordeste 0.2 -- -- 94
2019-12-03 07:00:00 8.8 11 Nordeste 27 Nordeste 0.8 -- -- 94
2019-12-03 06:00:00 9.5 10 Nordeste 17 Nordeste 0.4 -- -- 95
2019-12-03 05:00:00 9.6 4 Nordeste 8 Nordeste 0 -- -- 95
2019-12-03 04:00:00 9.8 6 Nordeste 19 Norte 0 -- -- 94
2019-12-03 03:00:00 9.4 6 Nordeste 20 Nordeste 0.6 -- -- 94
2019-12-03 02:00:00 9.5 8 Nordeste 19 Nordeste 2.8 -- -- 96
2019-12-03 01:00:00 9.9 7 Este 19 Este 1.2 -- -- 95
2019-12-03 00:00:00 10.2 11 Nordeste 22 Nordeste 0.6 -- -- 93
2019-12-02 23:00:00 10.2 8 Nordeste 18 Norte 0.2 -- -- 92
2019-12-02 22:00:00 9.9 12 Nordeste 24 Nordeste 0.6 -- -- 93
2019-12-02 21:00:00 10 9 Nordeste 19 Nordeste 2.2 -- -- 95
2019-12-02 20:00:00 10.1 8 Nordeste 19 Nordeste 1.2 -- -- 94
2019-12-02 19:00:00 9.9 8 Nordeste 27 Nordeste 1.8 -- -- 94
2019-12-02 18:00:00 10.1 12 Nordeste 40 Nordeste 0.8 -- -- 93
2019-12-02 17:00:00 10.3 18 Nordeste 36 Norte 0.6 -- -- 91
2019-12-02 16:00:00 10.3 18 Nordeste 34 Nordeste 1.2 -- -- 93
2019-12-02 15:00:00 10.4 20 Nordeste 40 Nordeste 0.6 -- -- 90
2019-12-02 14:00:00 10.2 11 Nordeste 32 Nordeste 2.2 -- -- 91
2019-12-02 13:00:00 10.5 13 Nordeste 29 Norte 1 -- -- 91
2019-12-02 12:00:00 10.6 10 Nordeste 27 Norte 0.4 -- -- 91
2019-12-02 11:00:00 10 9 Nordeste 21 Nordeste 0.8 -- -- 92
2019-12-02 10:00:00 9.6 9 Norte 19 Norte 0.2 -- -- 88
2019-12-02 09:00:00 9.2 4 Nordeste 11 Nordeste 0 -- -- 89
2019-12-02 08:00:00 8.7 4 Oeste 8 Sudoeste 1.2 -- -- 92
2019-12-02 07:00:00 8.9 3 Oeste 13 Sudoeste 2.4 -- -- 90
2019-12-02 06:00:00 9.8 4 Nordeste 13 Este 0.2 -- -- 81
2019-12-02 05:00:00 9.9 4 Nordeste 10 Nordeste 0.2 -- -- 81
2019-12-02 04:00:00 10.3 7 Nordeste 16 Nordeste 0 -- -- 79
2019-12-02 03:00:00 10.6 2 Nordeste 12 Nordeste 0.2 -- -- 89
2019-12-02 02:00:00 10.8 4 Nordeste 8 Nordeste 0.8 -- -- 90
2019-12-02 01:00:00 11 5 Nordeste 13 Nordeste 0 -- -- 88
2019-12-02 00:00:00 9.2 0 Calma 6 Sudoeste 0 -- -- 83
2019-12-01 23:00:00 8.5 4 Sudoeste 7 Sudoeste 0 -- -- 79
2019-12-01 22:00:00 8.3 0 Calma 7 Sudoeste 0 -- -- 74
2019-12-01 21:00:00 8.2 4 Nordeste 11 Nordeste 0 -- -- 72
2019-12-01 20:00:00 9.1 4 Oeste 13 Sudoeste 0 -- -- 68
2019-12-01 19:00:00 10.5 7 Sudoeste 11 Sudoeste 0 -- -- 64
2019-12-01 18:00:00 13 6 Noroeste 10 Oeste 0 -- -- 55
2019-12-01 17:00:00 15.9 4 Oeste 17 Sudoeste 0 -- -- 45
2019-12-01 16:00:00 16.7 7 Oeste 22 Sudoeste 0 -- -- 43
2019-12-01 15:00:00 16.8 8 Oeste 33 Sudoeste 0 -- -- 41
2019-12-01 14:00:00 17.1 15 Sudoeste 34 Oeste 0 -- -- 42
2019-12-01 13:00:00 16.6 12 Oeste 34 Sudoeste 0 -- -- 46
2019-12-01 12:00:00 15.9 12 Oeste 41 Sudoeste 0 -- -- 50
2019-12-01 11:00:00 15.3 18 Sudoeste 37 Sudoeste 0 -- -- 52
2019-12-01 10:00:00 14 5 Sur 10 Oeste 0 -- -- 64
2019-12-01 09:00:00 12.1 5 Oeste 15 Oeste 0 -- -- 72
2019-12-01 08:00:00 12.8 12 Sudoeste 23 Sudoeste 0 -- -- 75
2019-12-01 07:00:00 13.4 0 Calma 15 Sudoeste 0 -- -- 79
2019-12-01 06:00:00 12.5 2 Sudoeste 9 Oeste 0 -- -- 78
2019-12-01 05:00:00 11.8 2 Sudoeste 12 Noroeste 0 -- -- 78
2019-12-01 04:00:00 11 4 Noroeste 9 Sudoeste 0 -- -- 78
2019-12-01 03:00:00 11 3 Oeste 7 Norte 0 -- -- 76
2019-12-01 02:00:00 12.1 3 Sur 22 Sudoeste 0 -- -- 73
2019-12-01 01:00:00 13.7 6 Oeste 17 Oeste 0 -- -- 69
2019-12-01 00:00:00 14 4 Noroeste 26 Sur 0 -- -- 69
2019-11-30 23:00:00 14.9 10 Sudoeste 27 Sudoeste 0 -- -- 67
2019-11-30 22:00:00 14 6 Sudoeste 24 Sudoeste 0 -- -- 74
2019-11-30 21:00:00 13.9 3 Oeste 11 Sudoeste 0 -- -- 73
2019-11-30 20:00:00 13.8 2 Sur 6 Sudoeste 0 -- -- 71
2019-11-30 19:00:00 14.4 0 Calma 7 Noroeste 0 -- -- 67
2019-11-30 18:00:00 16.6 3 Sudoeste 9 Sur 0 -- -- 61
2019-11-30 17:00:00 20.3 5 Sudoeste 14 Noroeste 0 -- -- 50
2019-11-30 16:00:00 21.3 7 Noroeste 21 Sur 0 -- -- 48
2019-11-30 15:00:00 22 5 Sur 28 Sudoeste 0 -- -- 47
2019-11-30 14:00:00 21.7 6 Sur 31 Oeste 0 -- -- 49
2019-11-30 13:00:00 21 12 Sudoeste 25 Sudoeste 0 -- -- 51
2019-11-30 12:00:00 20.3 6 Sudoeste 29 Sudoeste 0 -- -- 53
2019-11-30 11:00:00 18.5 7 Sur 13 Sudoeste 0 -- -- 58
2019-11-30 10:00:00 16 3 Sur 10 Sudoeste 0 -- -- 70
2019-11-30 09:00:00 13.3 6 Sudoeste 13 Sudoeste 0 -- -- 79
2019-11-30 08:00:00 12.3 4 Noroeste 10 Oeste 0 -- -- 80
2019-11-30 07:00:00 13.2 5 Oeste 24 Oeste 0 -- -- 76
2019-11-30 06:00:00 13.6 3 Sudeste 14 Sudoeste 0 -- -- 76
2019-11-30 05:00:00 14 9 Sudoeste 24 Sudoeste 0 -- -- 75
2019-11-30 04:00:00 14.3 12 Sudoeste 25 Oeste 0 -- -- 75
2019-11-30 03:00:00 14.3 8 Sudoeste 19 Sudoeste 0 -- -- 75
2019-11-30 02:00:00 14.4 6 Sudoeste 25 Sudoeste 0 -- -- 75
2019-11-30 01:00:00 14.7 11 Sudoeste 24 Sudoeste 0 -- -- 75
2019-11-30 00:00:00 14.4 0 Calma 19 Oeste 0 -- -- 77
2019-11-29 23:00:00 14.6 4 Sudoeste 13 Sur 0 -- -- 74
2019-11-29 22:00:00 15.6 6 Sudoeste 21 Sur 0 -- -- 69
2019-11-29 21:00:00 15.6 5 Sudeste 25 Oeste 0 -- -- 70
2019-11-29 20:00:00 15.8 5 Oeste 18 Sudoeste 0 -- -- 69
2019-11-29 19:00:00 15.9 4 Oeste 27 Oeste 0 -- -- 69
2019-11-29 18:00:00 16.3 13 Sudoeste 27 Oeste 0 -- -- 69
2019-11-29 17:00:00 18.1 6 Sudoeste 26 Oeste 0 -- -- 63
2019-11-29 16:00:00 18.4 9 Sudoeste 22 Sudoeste 0 -- -- 61
2019-11-29 15:00:00 18.6 6 Sudoeste 17 Sudoeste 0 -- -- 61
2019-11-29 14:00:00 17.7 6 Sur 27 Sudoeste 0 -- -- 63
2019-11-29 13:00:00 17 7 Oeste 24 Sudoeste 0 -- -- 64
2019-11-29 12:00:00 16.1 8 Sudoeste 39 Sudoeste 0 -- -- 66
2019-11-29 11:00:00 16 15 Sudoeste 42 Oeste 0 -- -- 66
2019-11-29 10:00:00 15.7 14 Sudoeste 35 Sudoeste 0 -- -- 66
2019-11-29 09:00:00 15.6 13 Sudoeste 37 Sudoeste 0 -- -- 65
2019-11-29 08:00:00 15.7 10 Sur 37 Sudoeste 0 -- -- 64
2019-11-29 07:00:00 15.6 13 Sudoeste 44 Oeste 0 -- -- 63
2019-11-29 06:00:00 15.5 13 Sur 46 Sudoeste 0 -- -- 63
2019-11-29 05:00:00 15.4 17 Sudoeste 42 Sudoeste 0 -- -- 61
2019-11-29 04:00:00 15.3 11 Noroeste 42 Noroeste 0 -- -- 60
2019-11-29 03:00:00 14.9 17 Sudoeste 44 Sudoeste 0 -- -- 61
2019-11-29 02:00:00 15 13 Sudoeste 29 Sudoeste 0 -- -- 59
2019-11-29 01:00:00 15.1 12 Sudoeste 32 Sudoeste 0 -- -- 57
2019-11-29 00:00:00 15.1 9 Sudoeste 35 Sudoeste 0 -- -- 57
2019-11-28 23:00:00 14.7 8 Sudoeste 21 Sudoeste 0 -- -- 58
2019-11-28 22:00:00 14.1 6 Sudoeste 23 Sur 0 -- -- 60
2019-11-28 21:00:00 14 9 Sur 44 Sudoeste 0 -- -- 61
2019-11-28 20:00:00 13.5 12 Sudoeste 35 Oeste 0 -- -- 65
2019-11-28 19:00:00 13.5 16 Sudoeste 43 Sudoeste 0 -- -- 65
2019-11-28 18:00:00 13.7 15 Sudoeste 37 Sudoeste 0 -- -- 65
2019-11-28 17:00:00 15 5 Sudoeste 24 Sur 0 -- -- 60
2019-11-28 16:00:00 15.7 5 Norte 35 Sudoeste 0 -- -- 59
2019-11-28 15:00:00 15.4 18 Sur 44 Sudoeste 0 -- -- 59
2019-11-28 14:00:00 16.2 11 Sudoeste 36 Oeste 0 -- -- 58
2019-11-28 13:00:00 15.5 13 Sudoeste 41 Sudoeste 0 -- -- 60
2019-11-28 12:00:00 14.7 15 Sudoeste 50 Sudoeste 0 -- -- 62
2019-11-28 11:00:00 14.6 10 Sur 38 Oeste 0 -- -- 62
2019-11-28 10:00:00 14.2 17 Sudoeste 41 Oeste 0 -- -- 63
2019-11-28 09:00:00 13 13 Sudoeste 44 Sudoeste 0 -- -- 67
2019-11-28 08:00:00 12.4 5 Oeste 28 Sudoeste 0 -- -- 67
2019-11-28 07:00:00 13.3 12 Oeste 35 Sudoeste 0 -- -- 64
2019-11-28 06:00:00 13.5 8 Sudoeste 19 Sudoeste 0 -- -- 63
2019-11-28 05:00:00 13.6 6 Noroeste 31 Nordeste 0 -- -- 62
2019-11-28 04:00:00 12.4 6 Oeste 18 Sudoeste 0 -- -- 65
2019-11-28 03:00:00 11.7 2 Norte 14 Sudoeste 0 -- -- 67
2019-11-28 02:00:00 12.2 10 Nordeste 23 Noroeste 0 -- -- 66
2019-11-28 01:00:00 13 7 Oeste 22 Sudoeste 0 -- -- 63
2019-11-28 00:00:00 13.4 8 Sudoeste 24 Sudoeste 0 -- -- 61
2019-11-27 23:00:00 13.8 9 Sudoeste 27 Oeste 0 -- -- 63
2019-11-27 22:00:00 14.2 12 Sudoeste 40 Oeste 0 -- -- 63
2019-11-27 21:00:00 14.7 11 Sudoeste 32 Sudoeste 0 -- -- 59
2019-11-27 20:00:00 14.7 11 Sudoeste 37 Sudoeste 0 -- -- 57
2019-11-27 19:00:00 14.9 17 Sudoeste 51 Sudoeste 0 -- -- 55
2019-11-27 18:00:00 15.3 26 Sudoeste 53 Sudoeste 0 -- -- 53
2019-11-27 17:00:00 16.5 13 Sudoeste 57 Sudoeste 0 -- -- 47
2019-11-27 16:00:00 17.7 24 Sudoeste 59 Sudoeste 0 -- -- 44
2019-11-27 15:00:00 18.4 26 Sudoeste 74 Oeste 0 -- -- 43
2019-11-27 14:00:00 18.3 40 Sudoeste 78 Sudoeste 0 -- -- 46
2019-11-27 06:00:00 -- -- -- -- -- -- -- -- --
2019-11-27 05:00:00 -- -- -- -- -- -- -- -- --
2019-11-27 04:00:00 -- -- -- -- -- -- -- -- --
2019-11-27 03:00:00 17.9 10 Sur 44 Sudoeste 0 -- -- 59
2019-11-27 02:00:00 16.3 7 Sudeste 20 Este 0 -- -- 68
2019-11-27 01:00:00 15.3 5 Norte 10 Nordeste 0 -- -- 70
2019-11-27 00:00:00 16 4 Noroeste 17 Oeste 0 -- -- 67
2019-11-26 23:00:00 16.6 8 Oeste 30 Oeste 0 -- -- 66
2019-11-26 22:00:00 17.4 18 Sudoeste 38 Oeste 0 -- -- 62
2019-11-26 21:00:00 17.6 18 Sudoeste 51 Oeste 0 -- -- 63
2019-11-26 20:00:00 17.7 6 Sur 26 Nordeste 0 -- -- 64
2019-11-26 19:00:00 17.6 5 Sudeste 22 Noroeste 0 -- -- 66
2019-11-26 18:00:00 17.9 8 Este 30 Oeste 0 -- -- 64
2019-11-26 17:00:00 18.4 6 Sudoeste 30 Noroeste 0 -- -- 64
2019-11-26 16:00:00 19.1 12 Sudoeste 33 Sudoeste 0 -- -- 60
2019-11-26 15:00:00 19.6 11 Sudoeste 32 Sudoeste 0 -- -- 58
2019-11-26 14:00:00 19.2 11 Sudoeste 37 Sudoeste 0 -- -- 58
2019-11-26 13:00:00 19 20 Sudoeste 51 Oeste 0 -- -- 56
2019-11-26 12:00:00 18.6 24 Sudoeste 46 Sudoeste 0 -- -- 53
2019-11-26 11:00:00 18 9 Sur 31 Oeste 0 -- -- 54
2019-11-26 10:00:00 17.4 8 Sur 36 Sudoeste 0 -- -- 58
2019-11-26 09:00:00 15.5 7 Sudoeste 23 Oeste 0 -- -- 64
2019-11-26 08:00:00 14.1 4 Nordeste 34 Oeste 0 -- -- 68
2019-11-26 07:00:00 14.7 8 Este 25 Sudeste 0 -- -- 67
2019-11-26 06:00:00 13.8 6 Este 24 Oeste 0 -- -- 71
2019-11-26 05:00:00 14 6 Oeste 21 Noroeste 0 -- -- 75
2019-11-26 04:00:00 13.6 6 Sudoeste 15 Sudoeste 0 -- -- 79
2019-11-26 03:00:00 13.3 4 Sudeste 16 Sudoeste 0 -- -- 80
2019-11-26 02:00:00 13.5 4 Oeste 15 Sudoeste 0 -- -- 81
2019-11-26 01:00:00 12.8 3 Norte 14 Sur 0 -- -- 84
2019-11-26 00:00:00 12.6 2 Oeste 5 Sudoeste 0 -- -- 86
2019-11-25 23:00:00 12.1 0 Calma 5 Norte 0 -- -- 87
2019-11-25 22:00:00 12.4 0 Calma 8 Noroeste 0 -- -- 85
2019-11-25 21:00:00 12.8 0 Calma 8 Oeste 0 -- -- 83
2019-11-25 20:00:00 15 4 Noroeste 7 Noroeste 0 -- -- 78
2019-11-25 19:00:00 15.5 3 Nordeste 8 Norte 0 -- -- 77
2019-11-25 18:00:00 16.2 2 Sur 21 Sudoeste 0 -- -- 72
2019-11-25 17:00:00 16.5 9 Sudoeste 25 Sudoeste 0 -- -- 69
2019-11-25 16:00:00 16.8 8 Sudoeste 27 Sudoeste 0 -- -- 68
2019-11-25 15:00:00 16.4 8 Sudoeste 30 Oeste 0 -- -- 68
2019-11-25 14:00:00 16.6 9 Sudoeste 30 Noroeste 0 -- -- 67
2019-11-25 13:00:00 17.1 10 Sudoeste 29 Norte 0 -- -- 64
2019-11-25 12:00:00 17.6 14 Sudoeste 30 Oeste 0 -- -- 61
2019-11-25 11:00:00 16.7 11 Sudoeste 28 Sudoeste 0 -- -- 63
2019-11-25 10:00:00 14.9 6 Oeste 25 Sudoeste 0 -- -- 68
2019-11-25 09:00:00 14.3 10 Oeste 24 Sudoeste 0 -- -- 69
2019-11-25 08:00:00 12.8 2 Sudoeste 25 Sudoeste 0 -- -- 72
2019-11-25 07:00:00 13.2 12 Sudoeste 27 Oeste 0 -- -- 70
2019-11-25 06:00:00 13.2 10 Sudoeste 40 Sudoeste 0 -- -- 67
2019-11-25 05:00:00 13.2 19 Sudoeste 49 Oeste 0 -- -- 66
2019-11-25 04:00:00 13.1 14 Sudoeste 51 Sudoeste 0 -- -- 65
2019-11-25 03:00:00 12.5 13 Sur 49 Norte 0 -- -- 66
2019-11-25 02:00:00 12.1 15 Nordeste 45 Noroeste 0 -- -- 65
2019-11-25 01:00:00 11.9 11 Oeste 41 Norte 0 -- -- 64
2019-11-25 00:00:00 11.8 7 Sudoeste 61 Oeste 0 -- -- 62
2019-11-24 23:00:00 11.9 19 Oeste 55 Sudoeste 0 -- -- 61
2019-11-24 22:00:00 11.9 14 Oeste 41 Noroeste 0 -- -- 59
2019-11-24 21:00:00 11.7 9 Oeste 46 Sudoeste 0 -- -- 57
2019-11-24 20:00:00 11.9 21 Sudoeste 48 Sudoeste 0 -- -- 54
2019-11-24 19:00:00 12 9 Oeste 30 Sudoeste 0 -- -- 53
2019-11-24 18:00:00 12.5 11 Oeste 39 Sudoeste 0 -- -- 52
2019-11-24 17:00:00 13.5 4 Noroeste 42 Noroeste 0 -- -- 50
2019-11-24 16:00:00 14.7 13 Sudoeste 40 Sudoeste 0 -- -- 49
2019-11-24 15:00:00 15.4 12 Oeste 39 Sudoeste 0 -- -- 47
2019-11-24 14:00:00 15.1 15 Oeste 39 Sudoeste 0 -- -- 47
2019-11-24 13:00:00 14.3 19 Sudoeste 43 Sudoeste 0 -- -- 48
2019-11-24 12:00:00 14.2 14 Sudoeste 37 Sudoeste 0 -- -- 48
2019-11-24 11:00:00 13.1 12 Oeste 41 Oeste 0 -- -- 52
2019-11-24 10:00:00 11.9 17 Sudoeste 38 Sudoeste 0 -- -- 54
2019-11-24 09:00:00 10.3 17 Sudoeste 36 Sudoeste 0 -- -- 59
2019-11-24 08:00:00 8.4 17 Sudoeste 37 Sudoeste 0 -- -- 65
2019-11-24 07:00:00 9.1 18 Sudoeste 36 Sudoeste 0 -- -- 62
2019-11-24 06:00:00 8.5 17 Sudoeste 30 Sudoeste 0 -- -- 65
2019-11-24 05:00:00 9.2 8 Sudoeste 30 Oeste 0 -- -- 62
2019-11-24 04:00:00 9.7 8 Sudoeste 43 Oeste 0 -- -- 60
2019-11-24 03:00:00 10.1 24 Sudoeste 52 Sudoeste 0 -- -- 58
2019-11-24 02:00:00 10.6 23 Sudoeste 59 Sudoeste 0 -- -- 56
2019-11-24 01:00:00 11 12 Sudoeste 48 Sudoeste 0 -- -- 54
2019-11-24 00:00:00 11.3 21 Sudoeste 48 Oeste 0 -- -- 54
2019-11-23 23:00:00 11.6 20 Sudoeste 42 Sudoeste 0 -- -- 53
2019-11-23 22:00:00 12 20 Sudoeste 54 Oeste 0 -- -- 52
2019-11-23 21:00:00 12.5 21 Sudoeste 53 Sudoeste 0 -- -- 51
2019-11-23 20:00:00 12.7 22 Sudoeste 48 Sudoeste 0 -- -- 51
2019-11-23 19:00:00 12.7 14 Sudoeste 43 Oeste 0 -- -- 51
2019-11-23 18:00:00 13 16 Sudoeste 45 Sudoeste 0 -- -- 50
2019-11-23 17:00:00 13.6 14 Sudoeste 46 Oeste 0 -- -- 48
2019-11-23 16:00:00 14.8 13 Sudoeste 55 Sudoeste 0 -- -- 43
2019-11-23 15:00:00 15 21 Sudoeste 50 Sur 0 -- -- 44
2019-11-23 14:00:00 15.1 16 Sudoeste 59 Sudoeste 0 -- -- 46
2019-11-23 13:00:00 14 20 Sudoeste 54 Sudoeste 0 -- -- 51
2019-11-23 12:00:00 13.1 23 Sudoeste 58 Sudoeste 0 -- -- 55
2019-11-23 11:00:00 11.4 21 Sudoeste 59 Sudoeste 0 -- -- 60
2019-11-23 10:00:00 11.3 22 Oeste 53 Sudoeste 0 -- -- 62
2019-11-23 09:00:00 11.2 24 Sudoeste 66 Sudoeste 0 -- -- 64
2019-11-23 08:00:00 10.7 21 Sudoeste 50 Sudoeste 0.2 -- -- 69
2019-11-23 07:00:00 8.4 14 Sudoeste 40 Sudoeste 0.6 -- -- 81
2019-11-23 06:00:00 10.4 17 Sudoeste 63 Oeste 0 -- -- 66
2019-11-23 05:00:00 11.7 26 Sudoeste 62 Sudoeste 0.2 -- -- 63
2019-11-23 04:00:00 12.7 17 Sudoeste 40 Oeste 0 -- -- 63
2019-11-23 03:00:00 12.8 19 Sudoeste 56 Sudoeste 0 -- -- 64
2019-11-23 02:00:00 14 28 Sudoeste 52 Oeste 0 -- -- 62
2019-11-23 01:00:00 14 18 Sudoeste 58 Sudoeste 0.2 -- -- 59
2019-11-23 00:00:00 13.9 13 Sudoeste 31 Sudoeste 0 -- -- 62
2019-11-22 23:00:00 12.8 2 Sur 22 Sudoeste 0 -- -- 81
2019-11-22 22:00:00 13.4 6 Sudoeste 29 Sur 0 -- -- 79
2019-11-22 21:00:00 12.3 2 Oeste 9 Noroeste 0 -- -- 90
2019-11-22 20:00:00 13.1 3 Oeste 9 Este 0.2 -- -- 88
2019-11-22 19:00:00 12.7 2 Sudoeste 15 Sudoeste 0 -- -- 89
2019-11-22 18:00:00 13.4 8 Sudoeste 15 Sudoeste 0.2 -- -- 83
2019-11-22 17:00:00 13.4 0 Calma 23 Sudoeste 0.6 -- -- 87
2019-11-22 16:00:00 15.5 15 Sudoeste 30 Sur 0 -- -- 67
2019-11-22 15:00:00 16.3 16 Sur 36 Sudoeste 0 -- -- 63
2019-11-22 14:00:00 17.3 19 Sudoeste 41 Sudoeste 0 -- -- 60
2019-11-22 13:00:00 17.4 16 Sur 34 Sudoeste 0 -- -- 61
2019-11-22 12:00:00 13.8 3 Este 6 Este 0 -- -- 76
2019-11-22 11:00:00 11.3 0 Calma 5 Nordeste 0 -- -- 82
2019-11-22 10:00:00 8.6 0 Calma 3 Nordeste 0 -- -- 91
2019-11-22 09:00:00 7.9 0 Calma 6 Norte 0 -- -- 92
2019-11-22 08:00:00 7.3 4 Norte 10 Oeste 0 -- -- 90
2019-11-22 07:00:00 6.8 3 Oeste 8 Oeste 0 -- -- 92
2019-11-22 06:00:00 6.8 5 Oeste 11 Oeste 0 -- -- 93
2019-11-22 05:00:00 6.5 3 Oeste 5 Noroeste 0 -- -- 93
2019-11-22 04:00:00 7.4 2 Noroeste 11 Oeste 0 -- -- 87
2019-11-22 03:00:00 9 8 Oeste 14 Oeste 0 -- -- 83
2019-11-22 02:00:00 9.2 2 Oeste 11 Oeste 0 -- -- 82
2019-11-22 01:00:00 10.1 5 Oeste 14 Oeste 0 -- -- 81
2019-11-22 00:00:00 10.5 3 Sudoeste 8 Nordeste 0 -- -- 81
2019-11-21 23:00:00 11.2 2 Nordeste 12 Nordeste 0 -- -- 80
2019-11-21 22:00:00 11.4 6 Nordeste 8 Nordeste 0 -- -- 80
2019-11-21 21:00:00 11.1 5 Sudoeste 10 Sudoeste 0 -- -- 85
2019-11-21 20:00:00 11.9 3 Sudoeste 8 Sudoeste 0 -- -- 78
2019-11-21 19:00:00 12.6 5 Oeste 10 Oeste 0 -- -- 72
2019-11-21 18:00:00 13.4 4 Oeste 8 Oeste 0 -- -- 68
2019-11-21 17:00:00 14.5 3 Oeste 13 Sudoeste 0 -- -- 61
2019-11-21 16:00:00 14.6 0 Calma 9 Nordeste 0 -- -- 65
2019-11-21 15:00:00 14.4 0 Calma 8 Sudeste 0 -- -- 61
2019-11-21 14:00:00 13.7 4 Sur 15 Oeste 0 -- -- 65
2019-11-21 13:00:00 12.6 2 Sudeste 6 Sudeste 0 -- -- 71
2019-11-21 12:00:00 11.7 3 Nordeste 7 Nordeste 0 -- -- 73
2019-11-21 11:00:00 10.9 3 Sur 6 Noroeste 0 -- -- 79
2019-11-21 10:00:00 8.9 0 Calma 6 Sudoeste 0 -- -- 85
2019-11-21 09:00:00 6.1 2 Sudoeste 6 Sudoeste 0 -- -- 93
2019-11-21 08:00:00 -- -- -- -- -- -- -- -- --
2019-11-21 07:00:00 -- -- -- -- -- -- -- -- --
2019-11-21 06:00:00 -- -- -- -- -- -- -- -- --
2019-11-21 05:00:00 -- -- -- -- -- -- -- -- --
2019-11-21 04:00:00 -- -- -- -- -- -- -- -- --
2019-11-21 03:00:00 -- -- -- -- -- -- -- -- --
2019-11-21 02:00:00 -- -- -- -- -- -- -- -- --
2019-11-21 01:00:00 -- -- -- -- -- -- -- -- --
2019-11-21 00:00:00 -- -- -- -- -- -- -- -- --
2019-11-20 23:00:00 -- -- -- -- -- -- -- -- --
2019-11-20 22:00:00 -- -- -- -- -- -- -- -- --
2019-11-20 21:00:00 -- -- -- -- -- -- -- -- --
2019-11-20 20:00:00 -- -- -- -- -- -- -- -- --
2019-11-20 19:00:00 10.5 3 Sudoeste 8 Sudoeste 0 -- -- 58
2019-11-20 18:00:00 11.4 3 Sudoeste 9 Oeste 0 -- -- 57
2019-11-20 17:00:00 14 8 Sudoeste 15 Oeste 0 -- -- 43
2019-11-20 16:00:00 14.8 5 Sur 22 Sudoeste 0 -- -- 42
2019-11-20 15:00:00 15.8 9 Sudoeste 21 Sudoeste 0 -- -- 39
2019-11-20 14:00:00 15.7 10 Sur 23 Sudoeste 0 -- -- 36
2019-11-20 13:00:00 15.7 13 Sudoeste 22 Sudoeste 0 -- -- 38
2019-11-20 12:00:00 15.3 10 Sudoeste 17 Sudoeste 0 -- -- 42
2019-11-20 11:00:00 13.7 9 Sur 14 Sur 0 -- -- 51
2019-11-20 10:00:00 9.8 3 Nordeste 5 Este 0 -- -- 66
2019-11-20 09:00:00 6.5 0 Calma 8 Sudoeste 0 -- -- 78
2019-11-20 08:00:00 3.8 4 Oeste 8 Oeste 0 -- -- 83
2019-11-20 07:00:00 4.9 4 Oeste 11 Oeste 0 -- -- 77
2019-11-20 06:00:00 4.2 3 Oeste 8 Noroeste 0 -- -- 82
2019-11-20 05:00:00 4 0 Calma 6 Oeste 0 -- -- 81
2019-11-20 04:00:00 5.3 0 Calma 3 Noroeste 0 -- -- 76
2019-11-20 03:00:00 7.2 2 Oeste 9 Sudoeste 0 -- -- 71
2019-11-20 02:00:00 8.4 0 Calma 8 Este 0 -- -- 65
2019-11-20 01:00:00 8.9 5 Sudoeste 12 Sudoeste 0 -- -- 63
2019-11-20 00:00:00 8.6 4 Este 12 Noroeste 0 -- -- 64
2019-11-19 23:00:00 8.7 4 Sudeste 14 Sudoeste 0 -- -- 62
2019-11-19 22:00:00 9.9 6 Sudoeste 19 Sudoeste 0 -- -- 58
2019-11-19 21:00:00 8.8 4 Nordeste 12 Noroeste 0 -- -- 62
2019-11-19 20:00:00 8.9 4 Sur 16 Sur 0 -- -- 61
2019-11-19 19:00:00 8.4 3 Norte 10 Sudoeste 0 -- -- 65
2019-11-19 18:00:00 10.1 2 Oeste 11 Oeste 0 -- -- 58
2019-11-19 17:00:00 13.4 4 Sudoeste 17 Oeste 0 -- -- 47
2019-11-19 16:00:00 14.9 5 Sudeste 18 Sudoeste 0 -- -- 41
2019-11-19 15:00:00 14.4 10 Sudoeste 31 Sudoeste 0 -- -- 43
2019-11-19 14:00:00 14.5 9 Oeste 36 Sudoeste 0 -- -- 40
2019-11-19 13:00:00 13.4 21 Sudoeste 36 Sudoeste 0 -- -- 40
2019-11-19 12:00:00 13.1 6 Sur 20 Sudoeste 0 -- -- 38
2019-11-19 11:00:00 11.8 8 Sudoeste 22 Sur 0 -- -- 46
2019-11-19 10:00:00 9.6 5 Sudeste 20 Sur 0 -- -- 52
2019-11-19 09:00:00 6.4 7 Sur 16 Sudoeste 0 -- -- 64
2019-11-19 08:00:00 3.2 0 Calma 17 Sur 0 -- -- 75
2019-11-19 07:00:00 4.3 8 Sur 14 Sur 0 -- -- 71
2019-11-19 06:00:00 4.6 4 Sudoeste 20 Noroeste 0 -- -- 69
2019-11-19 05:00:00 4 0 Calma 9 Sudoeste 0 -- -- 72
2019-11-19 04:00:00 4.8 0 Calma 12 Noroeste 0 -- -- 70
2019-11-19 03:00:00 4.1 0 Calma 13 Sudoeste 0 -- -- 73
2019-11-19 02:00:00 6.2 8 Sudoeste 14 Oeste 0 -- -- 65
2019-11-19 01:00:00 7.5 3 Noroeste 9 Oeste 0 -- -- 56
2019-11-19 00:00:00 8 3 Noroeste 18 Oeste 0 -- -- 55
2019-11-18 23:00:00 8 3 Oeste 10 Noroeste 0 -- -- 54
2019-11-18 22:00:00 7.9 3 Noroeste 10 Noroeste 0 -- -- 53
2019-11-18 21:00:00 8.4 4 Noroeste 8 Oeste 0 -- -- 52
2019-11-18 20:00:00 8.8 2 Noroeste 5 Noroeste 0 -- -- 52
2019-11-18 19:00:00 9.4 3 Oeste 6 Noroeste 0 -- -- 50
2019-11-18 18:00:00 10.6 3 Noroeste 13 Noroeste 0 -- -- 46
2019-11-18 17:00:00 13.8 5 Norte 23 Oeste 0 -- -- 39
2019-11-18 16:00:00 14.3 5 Norte 23 Sudoeste 0 -- -- 42
2019-11-18 15:00:00 14.2 7 Oeste 28 Sudoeste 0 -- -- 41
2019-11-18 14:00:00 15.7 7 Noroeste 27 Sudoeste 0 -- -- 43
2019-11-18 13:00:00 15.3 8 Oeste 30 Sudoeste 0 -- -- 46
2019-11-18 12:00:00 14.5 10 Sudoeste 28 Sudoeste 0.2 -- -- 47
2019-11-18 11:00:00 13.2 7 Sudoeste 21 Sudoeste 0 -- -- 53
2019-11-18 10:00:00 11.8 9 Sudoeste 19 Sudoeste 0 -- -- 59
2019-11-18 09:00:00 7.7 3 Sudoeste 14 Noroeste 0 -- -- 73
2019-11-18 08:00:00 7.2 2 Sudoeste 10 Sudoeste 0 -- -- 76
2019-11-18 07:00:00 7.2 2 Nordeste 13 Sur 0 -- -- 81
2019-11-18 06:00:00 8.3 5 Oeste 14 Sudoeste 0 -- -- 78
2019-11-18 05:00:00 8.6 2 Oeste 19 Oeste 0 -- -- 78
2019-11-18 04:00:00 9.3 6 Oeste 18 Sudoeste 0 -- -- 77
2019-11-18 03:00:00 8.6 8 Oeste 11 Oeste 0 -- -- 87
2019-11-18 02:00:00 8.6 6 Norte 15 Sudoeste 0 -- -- 88
2019-11-18 01:00:00 9.1 4 Sur 22 Sudoeste 0 -- -- 84
2019-11-18 00:00:00 9.1 13 Sudoeste 21 Sudoeste 0.6 -- -- 87
2019-11-17 23:00:00 9.9 4 Sudoeste 29 Sudoeste 1.6 -- -- 85
2019-11-17 22:00:00 11.6 19 Sudoeste 38 Sudoeste 0 -- -- 69
2019-11-17 21:00:00 11.1 9 Sudoeste 39 Sudoeste 0 -- -- 68
2019-11-17 20:00:00 10.8 13 Sudoeste 31 Sudoeste 0 -- -- 68
2019-11-17 19:00:00 10.7 11 Sudoeste 29 Sudoeste 0 -- -- 66
2019-11-17 18:00:00 11.2 12 Sudoeste 31 Sudoeste 0 -- -- 64
2019-11-17 17:00:00 11.9 17 Sudoeste 40 Oeste 0 -- -- 62
2019-11-17 16:00:00 13 22 Sudoeste 50 Sudoeste 0 -- -- 56
2019-11-17 15:00:00 13.5 17 Sudoeste 42 Oeste 0 -- -- 49
2019-11-17 14:00:00 13.1 16 Sudoeste 41 Oeste 0 -- -- 49
2019-11-17 13:00:00 12.2 23 Sudoeste 53 Sudoeste 0 -- -- 48
2019-11-17 12:00:00 11.3 19 Sudoeste 45 Oeste 0 -- -- 51
2019-11-17 11:00:00 11.7 21 Sudoeste 49 Oeste 0 -- -- 49
2019-11-17 10:00:00 9.8 8 Sudoeste 44 Sudoeste 0 -- -- 51
2019-11-17 09:00:00 8.6 14 Sudoeste 31 Sudoeste 0 -- -- 54
2019-11-17 08:00:00 6.7 13 Sudoeste 29 Sudoeste 0 -- -- 58
2019-11-17 07:00:00 5.7 10 Sudoeste 36 Sudoeste 0 -- -- 62
2019-11-17 06:00:00 5.8 8 Sudoeste 24 Oeste 0 -- -- 63
2019-11-17 05:00:00 6.3 8 Sudoeste 31 Sudoeste 0 -- -- 62
2019-11-17 04:00:00 6.5 6 Sudoeste 22 Sudoeste 0 -- -- 61
2019-11-17 03:00:00 7.5 10 Sudoeste 30 Sudoeste 0 -- -- 58
2019-11-17 02:00:00 7.3 8 Sudoeste 26 Sudoeste 0 -- -- 59
2019-11-17 01:00:00 6.3 3 Norte 22 Oeste 0 -- -- 61
2019-11-17 00:00:00 7.4 4 Oeste 12 Oeste 0 -- -- 57
2019-11-16 23:00:00 6.2 0 Calma 11 Sudoeste 0 -- -- 62
2019-11-16 22:00:00 8.3 4 Sudoeste 28 Sudoeste 0 -- -- 54
2019-11-16 21:00:00 9.1 6 Sudoeste 21 Oeste 0 -- -- 50
2019-11-16 20:00:00 9.6 4 Sudoeste 19 Sudoeste 0 -- -- 49
2019-11-16 19:00:00 10.5 11 Sudoeste 33 Sudoeste 0 -- -- 48
2019-11-16 18:00:00 11.5 12 Sudoeste 27 Sudoeste 0 -- -- 43
2019-11-16 17:00:00 14.4 5 Sudoeste 24 Sudoeste 0 -- -- 35
2019-11-16 16:00:00 14.7 10 Sudoeste 27 Oeste 0 -- -- 34
2019-11-16 15:00:00 14.5 8 Oeste 27 Norte 0 -- -- 38
2019-11-16 14:00:00 13.9 10 Oeste 23 Oeste 0 -- -- 36
2019-11-16 13:00:00 14 7 Sudoeste 19 Sudoeste 0 -- -- 39
2019-11-16 12:00:00 12.8 5 Oeste 20 Norte 0 -- -- 43
2019-11-16 11:00:00 11.6 7 Noroeste 22 Noroeste 0 -- -- 47
2019-11-16 10:00:00 10.1 8 Oeste 20 Sudoeste 0 -- -- 52
2019-11-16 09:00:00 6.6 4 Sudoeste 15 Noroeste 0 -- -- 67
2019-11-16 08:00:00 4.3 5 Nordeste 10 Nordeste 0 -- -- 75
2019-11-16 07:00:00 5.3 0 Calma 11 Oeste 0 -- -- 71
2019-11-16 06:00:00 5.6 2 Sudoeste 10 Norte 0 -- -- 70
2019-11-16 05:00:00 6.9 4 Noroeste 16 Sudoeste 0 -- -- 64
2019-11-16 04:00:00 7.2 4 Sur 24 Sudoeste 0 -- -- 65
2019-11-16 03:00:00 7.5 4 Sur 16 Sudoeste 0 -- -- 62
2019-11-16 02:00:00 7.8 5 Sudoeste 21 Sudoeste 0 -- -- 62
2019-11-16 01:00:00 8 6 Sudoeste 19 Sudoeste 0 -- -- 62
2019-11-16 00:00:00 8.5 7 Oeste 29 Oeste 0 -- -- 60
2019-11-15 23:00:00 9.1 6 Oeste 25 Sudoeste 0 -- -- 59
2019-11-15 22:00:00 8.9 3 Oeste 30 Oeste 0 -- -- 60
2019-11-15 21:00:00 9.1 14 Sudoeste 27 Sudoeste 0 -- -- 60
2019-11-15 20:00:00 9.7 17 Sudoeste 35 Oeste 0 -- -- 58
2019-11-15 19:00:00 9.6 14 Sudoeste 29 Sudoeste 0 -- -- 56
2019-11-15 18:00:00 10 9 Sudoeste 32 Sudoeste 0 -- -- 55
2019-11-15 17:00:00 11 14 Sudoeste 39 Sudoeste 0 -- -- 53
2019-11-15 16:00:00 12 10 Sudoeste 33 Oeste 0 -- -- 51
2019-11-15 15:00:00 13.4 11 Sudoeste 39 Sudoeste 0 -- -- 45
2019-11-15 14:00:00 13.6 8 Sudoeste 35 Oeste 0 -- -- 44
2019-11-15 13:00:00 12.8 19 Sudoeste 42 Sudoeste 0 -- -- 47
2019-11-15 12:00:00 12.2 14 Sudoeste 44 Sudoeste 0 -- -- 50
2019-11-15 11:00:00 11.1 7 Este 38 Noroeste 0.2 -- -- 54
2019-11-15 10:00:00 9.8 17 Sudoeste 32 Sudoeste 0 -- -- 61
2019-11-15 09:00:00 8.8 8 Sudoeste 23 Sudoeste 0 -- -- 65
2019-11-15 08:00:00 7.4 8 Sudoeste 24 Sudoeste 0 -- -- 70
2019-11-15 07:00:00 7.7 9 Sudoeste 22 Este 0 -- -- 69
2019-11-15 06:00:00 7.9 12 Nordeste 26 Oeste 0 -- -- 71
2019-11-15 05:00:00 8.3 9 Sudoeste 42 Sudoeste 0 -- -- 66
2019-11-15 04:00:00 8.5 15 Sudoeste 49 Oeste 0 -- -- 66
2019-11-15 03:00:00 8.6 17 Sudoeste 42 Oeste 0 -- -- 66
2019-11-15 02:00:00 8.5 18 Sudoeste 43 Sudoeste 0 -- -- 66
2019-11-15 01:00:00 8.3 10 Sudoeste 37 Sudoeste 0 -- -- 71
2019-11-15 00:00:00 7.9 10 Sudoeste 67 Sudoeste 1.2 -- -- 78
2019-11-14 23:00:00 10.7 27 Sudoeste 69 Sudoeste 0 -- -- 55
2019-11-14 22:00:00 10.6 26 Sudoeste 56 Oeste 0 -- -- 54
2019-11-14 21:00:00 10.5 22 Sudoeste 53 Sudoeste 0 -- -- 55
2019-11-14 20:00:00 10.2 19 Sudoeste 57 Sudoeste 0.2 -- -- 59
2019-11-14 19:00:00 8.6 24 Sudoeste 42 Sudoeste 0.2 -- -- 71
2019-11-14 18:00:00 10.1 17 Sudoeste 35 Oeste 0 -- -- 57
2019-11-14 17:00:00 11.1 9 Sudoeste 35 Oeste 0 -- -- 55
2019-11-14 16:00:00 11.6 18 Sudoeste 37 Sudoeste 0 -- -- 50
2019-11-14 15:00:00 11.4 22 Sudoeste 45 Sudoeste 0 -- -- 50
2019-11-14 14:00:00 12.4 21 Sudoeste 39 Sudoeste 0 -- -- 52
2019-11-14 13:00:00 12.9 12 Oeste 55 Sudoeste 0 -- -- 57
2019-11-14 12:00:00 15.5 30 Sudoeste 75 Sudoeste 0 -- -- 52
2019-11-14 11:00:00 13.9 30 Sudoeste 66 Sudoeste 0 -- -- 58
2019-11-14 10:00:00 13.6 27 Sudoeste 73 Oeste 0 -- -- 57
2019-11-14 09:00:00 13.2 24 Sudoeste 61 Sudoeste 0 -- -- 59
2019-11-14 08:00:00 12.8 10 Sudoeste 36 Sudoeste 0 -- -- 63
2019-11-14 07:00:00 11 6 Sur 22 Sudeste 0 -- -- 74
2019-11-14 06:00:00 11.6 4 Sur 14 Noroeste 0 -- -- 72
2019-11-14 05:00:00 12.3 7 Norte 13 Nordeste 0 -- -- 73
2019-11-14 04:00:00 13.6 6 Este 19 Norte 0 -- -- 68
2019-11-14 03:00:00 13.4 2 Sur 16 Oeste 0 -- -- 71
2019-11-14 02:00:00 11.2 2 Oeste 8 Sudoeste 0 -- -- 85
2019-11-14 01:00:00 9.8 2 Oeste 7 Noroeste 0 -- -- 84
2019-11-14 00:00:00 9.7 0 Calma 10 Sudoeste 0 -- -- 76
2019-11-13 23:00:00 11.1 5 Nordeste 13 Oeste 0 -- -- 68
2019-11-13 22:00:00 10.7 3 Sudoeste 10 Sudoeste 0 -- -- 69
2019-11-13 21:00:00 10.8 0 Calma 13 Oeste 0 -- -- 67
2019-11-13 20:00:00 12.1 8 Sudoeste 12 Sudoeste 0 -- -- 61
2019-11-13 19:00:00 14.5 7 Oeste 9 Oeste 0 -- -- 54
2019-11-13 18:00:00 15.7 3 Noroeste 10 Oeste 0 -- -- 54
2019-11-13 17:00:00 17.9 2 Noroeste 22 Noroeste 0 -- -- 46
2019-11-13 16:00:00 18.8 8 Norte 30 Norte 0 -- -- 43
2019-11-13 15:00:00 19 13 Norte 35 Nordeste 0 -- -- 44
2019-11-13 14:00:00 17.5 9 Sudoeste 45 Norte 0.4 -- -- 67
2019-11-13 13:00:00 19 11 Noroeste 45 Noroeste 0 -- -- 62
2019-11-13 12:00:00 18.7 17 Oeste 37 Oeste 0 -- -- 61
2019-11-13 11:00:00 17 22 Sudoeste 71 Sudoeste 0 -- -- 64
2019-11-13 10:00:00 15.5 8 Sudoeste 40 Sudoeste 0 -- -- 67
2019-11-13 09:00:00 14.6 9 Sudoeste 32 Sudoeste 0 -- -- 69
2019-11-13 08:00:00 13.9 8 Oeste 51 Oeste 0 -- -- 70
2019-11-13 07:00:00 13.4 19 Sudoeste 48 Sudoeste 0 -- -- 70
2019-11-13 06:00:00 13 21 Sudoeste 42 Sudoeste 0 -- -- 70
2019-11-13 05:00:00 13.5 8 Sudoeste 58 Noroeste 0 -- -- 64
2019-11-13 04:00:00 13.3 5 Sur 46 Sudoeste 0 -- -- 62
2019-11-13 03:00:00 13.1 21 Sudoeste 47 Sudoeste 0 -- -- 60
2019-11-13 02:00:00 12.7 9 Sudoeste 22 Sur 0 -- -- 57
2019-11-13 01:00:00 12.4 4 Sudoeste 23 Sudoeste 0 -- -- 58
2019-11-13 00:00:00 12.7 11 Sudoeste 27 Sudoeste 0 -- -- 55
2019-11-12 23:00:00 12.8 13 Sudoeste 26 Sudoeste 0 -- -- 48
2019-11-12 22:00:00 12.3 2 Sudoeste 18 Sudoeste 0 -- -- 51
2019-11-12 21:00:00 12.7 14 Sudoeste 30 Sudoeste 0 -- -- 49
2019-11-12 20:00:00 13.2 12 Sudoeste 32 Oeste 0 -- -- 49
2019-11-12 19:00:00 13.9 13 Sudoeste 33 Sudoeste 0 -- -- 46
2019-11-12 18:00:00 15 17 Sudoeste 37 Sudoeste 0 -- -- 41
2019-11-12 17:00:00 17.5 17 Sudoeste 30 Sudoeste 0 -- -- 36
2019-11-12 16:00:00 18.2 10 Norte 32 Norte 0 -- -- 31
2019-11-12 15:00:00 18.7 9 Noroeste 23 Sur 0 -- -- 32
2019-11-12 14:00:00 18.1 10 Sudoeste 30 Sudoeste 0 -- -- 36
2019-11-12 13:00:00 17.1 10 Sudoeste 31 Oeste 0 -- -- 38
2019-11-12 12:00:00 16 10 Oeste 27 Oeste 0 -- -- 39
2019-11-12 11:00:00 14.7 14 Sudoeste 32 Sudoeste 0 -- -- 41
2019-11-12 10:00:00 13.2 8 Oeste 24 Noroeste 0 -- -- 43
2019-11-12 09:00:00 11.6 6 Oeste 25 Noroeste 0 -- -- 45
2019-11-12 08:00:00 9.1 6 Noroeste 28 Noroeste 0 -- -- 51
2019-11-12 07:00:00 9.2 6 Noroeste 23 Noroeste 0 -- -- 50
2019-11-12 06:00:00 9.7 6 Noroeste 22 Noroeste 0 -- -- 49
2019-11-12 05:00:00 9.8 6 Oeste 24 Oeste 0 -- -- 51
2019-11-12 04:00:00 9.8 4 Noroeste 19 Oeste 0 -- -- 51
2019-11-12 03:00:00 9.9 5 Oeste 17 Sudoeste 0 -- -- 51
2019-11-12 02:00:00 9.8 6 Noroeste 21 Oeste 0 -- -- 52
2019-11-12 01:00:00 9.9 3 Noroeste 22 Oeste 0 -- -- 53
2019-11-12 00:00:00 10.5 3 Sudoeste 21 Norte 0 -- -- 53